ADDS METAR Data INFO
IDs: Format: Raw Decoded Include TAF

Data at: 0455 UTC 23 May 2017

KBKD 230435Z AUTO 20005KT 7SM BKN080 OVC100 20/17 A2994 RMK AO2 T02020170
KBKD 230415Z AUTO 20005KT 5SM HZ SCT080 BKN100 21/17 A2993 RMK AO2 T02050167
KBKD 230355Z AUTO 00000KT 7SM SCT029 BKN080 BKN110 21/17 A2994 RMK AO2 LTG DSNT NW T02090166
KBKD 230335Z AUTO 00000KT 7SM SCT031 21/17 A2995 RMK AO2 T02100165
KBKD 230315Z AUTO 19006KT 7SM CLR 21/16 A2993 RMK AO2 LTG DSNT SW T02110163
KBKD 230255Z AUTO 17006KT 7SM SCT031 SCT040 22/16 A2992 RMK AO2 T02210160
KBKD 230235Z AUTO 18006KT 5SM HZ BKN031 OVC040 22/16 A2993 RMK AO2 LTG DSNT S AND SW T02220161
KBKD 230215Z AUTO 22004KT 10SM -DZ BKN031 BKN046 OVC120 23/16 A2993 RMK AO2 LTG DSNT SE AND S T02290156
KBKD 230155Z AUTO 05003KT 10SM -DZ OVC110 22/16 A2991 RMK AO2 LTG DSNT SE THRU SW T02200160
KBKD 230135Z AUTO 13004KT 7SM SCT110 23/16 A2993 RMK AO2 LTG DSNT S AND SW T02300155
KBKD 230115Z AUTO 16006KT 7SM CLR 23/15 A2989 RMK AO2 LTG DSNT W T02300154
KBKD 230055Z AUTO 12005KT 5SM HZ SCT048 SCT065 24/16 A2991 RMK AO2 T02350155
KBKD 230035Z AUTO 13006KT 5SM HZ BKN048 BKN065 OVC070 24/15 A2991 RMK AO2 LTG DSNT N AND W T02390153
KBKD 230015Z AUTO 11005KT 7SM OVC048 24/15 A2991 RMK AO2 LTG DSNT W T02400154
KBKD 222355Z AUTO 13008KT 5SM HZ SCT032 SCT038 OVC046 25/15 A2991 RMK AO2 LTG DSNT N T02450154 10262 20233
KBKD 222335Z AUTO 12006KT 5SM HZ BKN038 BKN044 25/15 A2991 RMK AO2 T02500153
KBKD 222315Z AUTO 12009KT 5SM HZ SCT036 BKN043 BKN060 26/16 A2991 RMK AO2 T02590155
KBKD 222255Z AUTO 14005KT 7SM SCT034 SCT043 BKN060 26/15 A2992 RMK AO2 LTG DSNT N T02600153
KBKD 222235Z AUTO 12007KT 5SM HZ SCT034 SCT049 BKN060 26/15 A2993 RMK AO2 T02600153
KBKD 222215Z AUTO 12006KT 7SM SCT040 OVC049 25/15 A2993 RMK AO2 T02530150
KBKD 222155Z AUTO 14006KT 5SM HZ SCT036 BKN043 OVC049 25/15 A2994 RMK AO2 T02500150
KBKD 222135Z AUTO 13008KT 5SM HZ SCT034 SCT043 OVC049 26/15 A2994 RMK AO2 T02550151
KBKD 222115Z AUTO 15005KT 5SM HZ SCT038 OVC049 26/15 A2995 RMK AO2 T02550150
KBKD 222055Z AUTO 16004KT 7SM SCT035 BKN042 OVC050 25/15 A2996 RMK AO2 T02540148
KBKD 222035Z AUTO 11008KT 7SM SCT033 BKN039 OVC050 25/15 A2996 RMK AO2 T02510148
KBKD 222015Z AUTO 14006KT 5SM HZ BKN035 OVC042 26/15 A2997 RMK AO2 T02550151
KBKD 221955Z AUTO 11008KT 7SM OVC033 25/15 A2998 RMK AO2 T02500150
KBKD 221935Z AUTO 14008KT 7SM OVC033 25/15 A2999 RMK AO2 T02470150
KBKD 221915Z AUTO 15006KT 7SM OVC031 25/15 A3000 RMK AO2 T02460150
KBKD 221855Z AUTO 18004KT 7SM OVC029 24/15 A3001 RMK AO2 T02410148
KBKD 221835Z AUTO 13004KT 5SM HZ BKN027 OVC048 24/15 A3002 RMK AO2 T02420148
KBKD 221815Z AUTO 15003KT 5SM HZ BKN025 24/15 A3003 RMK AO2 T02370152
KBKD 221755Z AUTO 10003KT 5SM HZ SCT023 24/15 A3003 RMK AO2 T02360148 10236 20146
KBKD 221735Z AUTO 10005KT 5SM HZ BKN021 23/15 A3004 RMK AO2 T02310147
KBKD 221715Z AUTO 10004KT 5SM HZ BKN019 22/14 A3005 RMK AO2 T02180144
KBKD 221655Z AUTO 07006KT 5SM HZ OVC017 22/14 A3007 RMK AO2 T02170142
KBKD 221635Z AUTO 10006KT 5SM HZ OVC017 21/14 A3007 RMK AO2 T02090141
KBKD 221615Z AUTO 12005KT 5SM HZ OVC017 21/14 A3008 RMK AO2 T02110141
KBKD 221555Z AUTO 07006KT 10SM OVC017 20/14 A3010 RMK AO2 T01950137
KBKD 221535Z AUTO 10004KT 10SM OVC017 20/14 A3010 RMK AO2 T01960136
KBKD 221515Z AUTO 07003KT 7SM OVC017 20/13 A3011 RMK AO2 T01950134
KBKD 221455Z AUTO 00000KT 7SM OVC015 19/13 A3011 RMK AO2 T01910131
KBKD 221435Z AUTO 15003KT 10SM BKN015 OVC050 19/13 A3010 RMK AO2 T01890132
KBKD 221415Z AUTO 16004KT 10SM SCT015 OVC050 18/13 A3009 RMK AO2 T01770129
KBKD 221355Z AUTO 13006KT 10SM BKN015 OVC050 18/13 A3009 RMK AO2 T01770128
KBKD 221335Z AUTO 17005KT 10SM OVC015 18/13 A3009 RMK AO2 T01800132
KBKD 221315Z AUTO 18006KT 10SM BKN015 17/13 A3009 RMK AO2 T01710129
KBKD 221255Z AUTO 17004KT 10SM BKN019 17/13 A3008 RMK AO2 T01670128
KBKD 221235Z AUTO 00000KT 10SM SCT021 16/14 A3009 RMK AO2 T01560135
KBKD 221215Z AUTO 00000KT 10SM CLR 15/13 A3008 RMK AO2 T01460132
KBKD 221155Z AUTO 00000KT 10SM CLR 15/12 A3008 RMK AO2 T01480122 10188 20148
KBKD 221135Z AUTO 13004KT 10SM CLR 15/12 A3008 RMK AO2 T01480123
KBKD 221115Z AUTO 07003KT 10SM CLR 15/12 A3008 RMK AO2 T01520124
KBKD 221055Z AUTO 13003KT 10SM CLR 16/12 A3008 RMK AO2 T01550123
KBKD 221035Z AUTO 00000KT 10SM CLR 16/13 A3008 RMK AO2 T01550125
KBKD 221015Z AUTO 00000KT 10SM SCT100 16/13 A3008 RMK AO2 T01560125
KBKD 220955Z AUTO 16003KT 10SM BKN100 16/13 A3009 RMK AO2 T01580125
KBKD 220935Z AUTO 15003KT 10SM SCT100 16/12 A3010 RMK AO2 T01610122
KBKD 220915Z AUTO 16003KT 10SM BKN025 17/12 A3010 RMK AO2 T01660120
KBKD 220855Z AUTO 16003KT 10SM OVC025 17/12 A3011 RMK AO2 T01700118
KBKD 220835Z AUTO 14005KT 10SM BKN023 17/12 A3011 RMK AO2 T01660117
KBKD 220815Z AUTO 14006KT 10SM CLR 17/12 A3011 RMK AO2 T01670116
KBKD 220755Z AUTO 12008KT 7SM SCT029 SCT043 17/12 A3011 RMK AO2 T01700116
KBKD 220735Z AUTO 13009KT 10SM BKN029 BKN043 18/12 A3013 RMK AO2 T01750120
KBKD 220715Z AUTO 13007KT 10SM OVC031 18/12 A3013 RMK AO2 T01780119
KBKD 220655Z AUTO 15005KT 7SM BKN031 18/12 A3013 RMK AO2 T01760117
KBKD 220635Z AUTO 13007KT 5SM HZ CLR 18/11 A3013 RMK AO2 T01820114
KBKD 220615Z AUTO 12008KT 7SM SCT060 SCT110 19/11 A3012 RMK AO2 T01860112
KBKD 220555Z AUTO 10004KT 7SM SCT060 OVC110 19/11 A3012 RMK AO2 T01880114 10221 20187 402510160
KBKD 220535Z AUTO 07003KT 7SM SCT055 OVC110 19/12 A3012 RMK AO2 T01870116
KBKD 220515Z AUTO 13003KT 7SM OVC055 19/11 A3012 RMK AO2 LTG DSNT NE T01900113
KBKD 220455Z AUTO 00000KT 5SM HZ OVC060 19/11 A3012 RMK AO2 T01910110
KBKD 220435Z AUTO 16008KT 7SM OVC060 19/11 A3012 RMK AO2 T01920113
KBKD 220415Z AUTO 16005KT 7SM BKN060 BKN120 19/12 A3011 RMK AO2 T01910120
KBKD 220355Z AUTO 00000KT 5SM HZ SCT060 19/12 A3011 RMK AO2 T01930115
KBKD 220335Z AUTO 00000KT 5SM HZ SCT060 20/12 A3011 RMK AO2 T01950120
KBKD 220315Z AUTO 00000KT 7SM BKN050 20/12 A3011 RMK AO2 T01950115
KBKD 220255Z AUTO 13003KT 7SM OVC050 20/12 A3011 RMK AO2 T01950119
KBKD 220235Z AUTO 16004KT 7SM OVC050 20/12 A3010 RMK AO2 T02000116
KBKD 220215Z AUTO 17006KT 7SM OVC050 20/12 A3010 RMK AO2 T01990120
KBKD 220155Z AUTO 17003KT 7SM OVC050 20/12 A3010 RMK AO2 LTG DSNT SE T02000119
KBKD 220135Z AUTO 19005KT 5SM HZ OVC055 20/12 A3010 RMK AO2 T02030122
KBKD 220115Z AUTO 20005KT 5SM HZ BKN055 21/13 A3011 RMK AO2 T02050130
KBKD 220055Z AUTO 20004KT 7SM SCT055 21/13 A3010 RMK AO2 T02060125
KBKD 220035Z AUTO 19005KT 5SM HZ SCT055 21/12 A3010 RMK AO2 T02100124
KBKD 220015Z AUTO 19004KT 5SM HZ SCT055 22/12 A3010 RMK AO2 T02150115
KBKD 212355Z AUTO 00000KT 5SM HZ CLR 22/11 A3009 RMK AO2 T02220106 10251 20222
KBKD 212335Z AUTO 15004KT 7SM SCT110 23/10 A3009 RMK AO2 T02250100
KBKD 212315Z AUTO 13004KT 5SM HZ SCT110 23/10 A3010 RMK AO2 T02270096
KBKD 212255Z AUTO 16004KT 5SM HZ SCT110 23/09 A3011 RMK AO2 T02310087
KBKD 212235Z AUTO 15005KT 5SM HZ SCT110 24/09 A3011 RMK AO2 T02350087
KBKD 212215Z AUTO 15007KT 5SM HZ CLR 24/09 A3011 RMK AO2 T02380087
KBKD 212155Z AUTO 14005KT 5SM HZ CLR 24/08 A3011 RMK AO2 T02420080
KBKD 212135Z AUTO 14012KT 7SM CLR 24/07 A3011 RMK AO2 LTG DSNT S T02440073
KBKD 212115Z AUTO 14010G14KT 7SM SCT090 25/07 A3011 RMK AO2 T02470073
KBKD 212055Z AUTO 13005KT 5SM HZ OVC090 25/07 A3012 RMK AO2 T02490072
KBKD 212035Z AUTO 11007KT 7SM BKN100 25/07 A3012 RMK AO2 T02510066
KBKD 212015Z AUTO 09007KT 5SM HZ BKN100 25/08 A3013 RMK AO2 T02500075
KBKD 211955Z AUTO 08008KT 7SM SCT100 25/07 A3013 RMK AO2 T02500074
KBKD 211935Z AUTO 07006KT 7SM BKN110 25/07 A3012 RMK AO2 T02450073
KBKD 211915Z AUTO 08009KT 5SM HZ OVC100 24/07 A3013 RMK AO2 T02400067
KBKD 211855Z AUTO 09013G16KT 7SM BKN090 25/07 A3015 RMK AO2 T02460074
KBKD 211835Z AUTO 07010G16KT 5SM HZ CLR 25/07 A3014 RMK AO2 T02470071
KBKD 211815Z AUTO 07011G17KT 5SM HZ SCT095 24/07 A3013 RMK AO2 T02380066
KBKD 211755Z AUTO 10009G17KT 5SM HZ OVC095 24/06 A3016 RMK AO2 T02360062 10236 20160
KBKD 211735Z AUTO 09009G15KT 7SM OVC095 23/07 A3019 RMK AO2 T02280065
KBKD 211715Z AUTO 10008KT 10SM OVC095 22/07 A3019 RMK AO2 T02230071


Page loaded:  04:55 UTC  |   09:55 PM Pacific  |   10:55 PM Mountain  |   11:55 PM Central  |   12:55 AM Eastern

 

ADVISORIES

FORECASTS

FORECASTS

OBSERVATIONS

USER TOOLS

ABOUT US